sensor_id;sensor_type;location;lat;lon;timestamp;pressure;altitude;pressure_sealevel;temperature;humidity
11268;BME280;49397;47.474;9.416;2022-09-20T00:00:35;95906.16;;;8.73;83.37
11268;BME280;49397;47.474;9.416;2022-09-20T00:03:01;95895.56;;;8.77;82.66
11268;BME280;49397;47.474;9.416;2022-09-20T00:05:26;95905.34;;;8.73;82.14
11268;BME280;49397;47.474;9.416;2022-09-20T00:07:52;95888.53;;;8.76;81.35
11268;BME280;49397;47.474;9.416;2022-09-20T00:10:17;95886.63;;;8.76;81.56
11268;BME280;49397;47.474;9.416;2022-09-20T00:12:43;95899.00;;;8.82;81.05
11268;BME280;49397;47.474;9.416;2022-09-20T00:15:08;95894.75;;;8.76;81.52
11268;BME280;49397;47.474;9.416;2022-09-20T00:17:34;95896.63;;;8.76;81.13
11268;BME280;49397;47.474;9.416;2022-09-20T00:20:00;95905.84;;;8.75;81.00
11268;BME280;49397;47.474;9.416;2022-09-20T00:22:25;95895.00;;;8.80;80.74
11268;BME280;49397;47.474;9.416;2022-09-20T00:24:51;95896.28;;;8.82;80.70
11268;BME280;49397;47.474;9.416;2022-09-20T00:27:17;95881.75;;;8.78;79.32
11268;BME280;49397;47.474;9.416;2022-09-20T00:29:42;95894.94;;;8.85;78.89
11268;BME280;49397;47.474;9.416;2022-09-20T00:32:08;95873.63;;;8.78;78.75
11268;BME280;49397;47.474;9.416;2022-09-20T00:34:33;95889.44;;;8.90;79.02
11268;BME280;49397;47.474;9.416;2022-09-20T00:37:17;95884.94;;;8.80;78.54
11268;BME280;49397;47.474;9.416;2022-09-20T00:39:43;95889.56;;;8.80;79.58
11268;BME280;49397;47.474;9.416;2022-09-20T00:42:12;95885.63;;;8.72;80.36
11268;BME280;49397;47.474;9.416;2022-09-20T00:49:53;95889.09;;;8.49;80.63
11268;BME280;49397;47.474;9.416;2022-09-20T00:52:20;95873.72;;;8.45;80.80
11268;BME280;49397;47.474;9.416;2022-09-20T00:54:47;95881.72;;;8.31;82.20
11268;BME280;49397;47.474;9.416;2022-09-20T00:57:13;95863.75;;;8.12;82.79
11268;BME280;49397;47.474;9.416;2022-09-20T00:59:40;95874.78;;;8.20;83.00
11268;BME280;49397;47.474;9.416;2022-09-20T01:02:15;95875.97;;;8.09;83.06
11268;BME280;49397;47.474;9.416;2022-09-20T01:04:42;95873.78;;;8.06;82.95
11268;BME280;49397;47.474;9.416;2022-09-20T01:07:11;95872.50;;;7.99;83.43
11268;BME280;49397;47.474;9.416;2022-09-20T01:09:37;95870.72;;;7.89;83.89
11268;BME280;49397;47.474;9.416;2022-09-20T01:12:06;95884.22;;;7.89;84.28
11268;BME280;49397;47.474;9.416;2022-09-20T01:14:34;95876.09;;;7.89;84.11
11268;BME280;49397;47.474;9.416;2022-09-20T01:17:02;95877.28;;;7.78;83.77
11268;BME280;49397;47.474;9.416;2022-09-20T01:25:14;95881.63;;;7.79;84.88
11268;BME280;49397;47.474;9.416;2022-09-20T01:27:46;95877.00;;;7.80;83.74
11268;BME280;49397;47.474;9.416;2022-09-20T01:30:19;95870.53;;;7.81;84.54
11268;BME280;49397;47.474;9.416;2022-09-20T01:33:13;95865.44;;;7.74;84.13
11268;BME280;49397;47.474;9.416;2022-09-20T01:35:44;95870.34;;;7.67;85.20
11268;BME280;49397;47.474;9.416;2022-09-20T01:38:26;95864.38;;;7.70;84.28
11268;BME280;49397;47.474;9.416;2022-09-20T01:41:10;95868.16;;;7.74;84.44
11268;BME280;49397;47.474;9.416;2022-09-20T01:44:05;95849.56;;;7.67;84.40
11268;BME280;49397;47.474;9.416;2022-09-20T01:46:28;95870.66;;;7.60;84.34
11268;BME280;49397;47.474;9.416;2022-09-20T01:49:33;95869.03;;;7.64;84.15
11268;BME280;49397;47.474;9.416;2022-09-20T01:52:15;95864.91;;;7.72;84.67
11268;BME280;49397;47.474;9.416;2022-09-20T02:04:08;95858.41;;;7.73;83.53
11268;BME280;49397;47.474;9.416;2022-09-20T02:12:24;95868.66;;;7.37;84.12
11268;BME280;49397;47.474;9.416;2022-09-20T02:34:23;95864.47;;;7.16;86.08
11268;BME280;49397;47.474;9.416;2022-09-20T02:40:10;95870.16;;;7.10;86.36
11268;BME280;49397;47.474;9.416;2022-09-20T02:42:43;95866.88;;;7.18;85.76
11268;BME280;49397;47.474;9.416;2022-09-20T02:48:04;95869.03;;;7.21;86.02
11268;BME280;49397;47.474;9.416;2022-09-20T02:50:46;95871.81;;;7.11;85.67
11268;BME280;49397;47.474;9.416;2022-09-20T02:53:43;95868.59;;;7.04;86.21
11268;BME280;49397;47.474;9.416;2022-09-20T02:56:37;95881.81;;;7.00;86.21
11268;BME280;49397;47.474;9.416;2022-09-20T03:01:58;95876.97;;;6.97;86.74
11268;BME280;49397;47.474;9.416;2022-09-20T03:10:24;95882.63;;;7.06;87.28
11268;BME280;49397;47.474;9.416;2022-09-20T03:44:09;95894.06;;;6.83;86.95
11268;BME280;49397;47.474;9.416;2022-09-20T03:46:46;95897.81;;;6.87;86.44
11268;BME280;49397;47.474;9.416;2022-09-20T03:49:44;95898.63;;;6.87;86.23
11268;BME280;49397;47.474;9.416;2022-09-20T03:58:12;95893.25;;;6.77;87.80
11268;BME280;49397;47.474;9.416;2022-09-20T04:00:54;95891.84;;;6.90;87.37
11268;BME280;49397;47.474;9.416;2022-09-20T04:03:47;95904.78;;;6.98;86.65
11268;BME280;49397;47.474;9.416;2022-09-20T04:11:49;95900.47;;;6.97;87.13
11268;BME280;49397;47.474;9.416;2022-09-20T04:14:27;95888.00;;;7.06;86.86
11268;BME280;49397;47.474;9.416;2022-09-20T04:20:00;95888.84;;;7.01;86.35
11268;BME280;49397;47.474;9.416;2022-09-20T04:22:28;95885.88;;;6.98;86.69
11268;BME280;49397;47.474;9.416;2022-09-20T04:27:53;95889.97;;;6.95;86.37
11268;BME280;49397;47.474;9.416;2022-09-20T04:30:26;95896.09;;;7.11;86.35
11268;BME280;49397;47.474;9.416;2022-09-20T04:38:26;95896.00;;;7.26;86.93
11268;BME280;49397;47.474;9.416;2022-09-20T04:55:54;95901.19;;;7.56;86.15
11268;BME280;49397;47.474;9.416;2022-09-20T04:59:15;95902.00;;;7.61;85.84
11268;BME280;49397;47.474;9.416;2022-09-20T05:15:08;95915.91;;;7.79;84.42
11268;BME280;49397;47.474;9.416;2022-09-20T05:23:07;95918.59;;;7.79;85.49
11268;BME280;49397;47.474;9.416;2022-09-20T05:28:37;95916.69;;;12.04;91.65
11268;BME280;49397;47.474;9.416;2022-09-20T05:31:18;95907.50;;;11.02;72.24
11268;BME280;49397;47.474;9.416;2022-09-20T05:34:10;95919.88;;;9.24;77.57
11268;BME280;49397;47.474;9.416;2022-09-20T05:36:44;95930.09;;;8.85;79.42
11268;BME280;49397;47.474;9.416;2022-09-20T05:39:48;95930.78;;;8.43;81.33
11268;BME280;49397;47.474;9.416;2022-09-20T05:42:21;95928.53;;;8.22;82.97
11268;BME280;49397;47.474;9.416;2022-09-20T05:50:53;95939.22;;;8.03;83.77
11268;BME280;49397;47.474;9.416;2022-09-20T05:53:53;95933.09;;;7.93;84.12
11268;BME280;49397;47.474;9.416;2022-09-20T06:04:28;95938.09;;;8.09;83.62
11268;BME280;49397;47.474;9.416;2022-09-20T06:14:54;95945.44;;;8.04;84.60
11268;BME280;49397;47.474;9.416;2022-09-20T06:17:36;95937.03;;;8.05;84.37
11268;BME280;49397;47.474;9.416;2022-09-20T06:20:08;95929.06;;;8.24;83.85
11268;BME280;49397;47.474;9.416;2022-09-20T06:22:41;95921.88;;;8.43;82.72
11268;BME280;49397;47.474;9.416;2022-09-20T06:30:24;95923.97;;;8.98;81.43
11268;BME280;49397;47.474;9.416;2022-09-20T06:33:11;95915.50;;;9.04;81.86
11268;BME280;49397;47.474;9.416;2022-09-20T06:36:03;95922.91;;;9.41;80.16
11268;BME280;49397;47.474;9.416;2022-09-20T06:41:43;95926.44;;;9.79;78.87
11268;BME280;49397;47.474;9.416;2022-09-20T06:44:09;95923.31;;;10.04;78.20
11268;BME280;49397;47.474;9.416;2022-09-20T06:46:35;95929.84;;;10.21;78.80
11268;BME280;49397;47.474;9.416;2022-09-20T06:49:02;95931.09;;;10.29;77.91
11268;BME280;49397;47.474;9.416;2022-09-20T06:51:33;95936.47;;;10.47;78.02
11268;BME280;49397;47.474;9.416;2022-09-20T06:53:59;95933.47;;;10.62;77.46
11268;BME280;49397;47.474;9.416;2022-09-20T06:56:28;95928.78;;;10.68;76.51
11268;BME280;49397;47.474;9.416;2022-09-20T06:58:55;95931.22;;;10.83;76.38
11268;BME280;49397;47.474;9.416;2022-09-20T07:01:21;95933.34;;;11.00;75.63
11268;BME280;49397;47.474;9.416;2022-09-20T07:03:47;95942.09;;;11.10;76.55
11268;BME280;49397;47.474;9.416;2022-09-20T07:06:12;95920.06;;;11.12;77.72
11268;BME280;49397;47.474;9.416;2022-09-20T07:08:41;95931.63;;;11.31;77.68
11268;BME280;49397;47.474;9.416;2022-09-20T07:11:13;95931.53;;;11.36;76.86
11268;BME280;49397;47.474;9.416;2022-09-20T07:13:40;95939.47;;;11.46;75.29
11268;BME280;49397;47.474;9.416;2022-09-20T07:16:07;95939.94;;;11.61;75.00
11268;BME280;49397;47.474;9.416;2022-09-20T07:18:33;95937.34;;;11.70;74.45
11268;BME280;49397;47.474;9.416;2022-09-20T07:20:59;95930.09;;;11.79;74.38
11268;BME280;49397;47.474;9.416;2022-09-20T07:23:26;95937.81;;;11.85;72.76
11268;BME280;49397;47.474;9.416;2022-09-20T07:25:52;95945.84;;;11.90;72.86
11268;BME280;49397;47.474;9.416;2022-09-20T07:28:18;95936.84;;;12.03;72.78
11268;BME280;49397;47.474;9.416;2022-09-20T07:30:46;95942.13;;;12.22;72.29
11268;BME280;49397;47.474;9.416;2022-09-20T07:33:12;95938.59;;;12.44;71.80
11268;BME280;49397;47.474;9.416;2022-09-20T07:35:44;95937.44;;;12.58;70.27
11268;BME280;49397;47.474;9.416;2022-09-20T07:38:11;95941.19;;;12.71;70.38
11268;BME280;49397;47.474;9.416;2022-09-20T07:40:37;95945.31;;;12.68;70.01
11268;BME280;49397;47.474;9.416;2022-09-20T07:43:02;95937.16;;;12.68;70.56
11268;BME280;49397;47.474;9.416;2022-09-20T07:45:28;95959.16;;;13.02;69.90
11268;BME280;49397;47.474;9.416;2022-09-20T07:47:58;95945.56;;;13.11;69.79
11268;BME280;49397;47.474;9.416;2022-09-20T07:50:24;95958.19;;;13.37;68.41
11268;BME280;49397;47.474;9.416;2022-09-20T07:52:50;95960.59;;;13.39;67.92
11268;BME280;49397;47.474;9.416;2022-09-20T07:55:15;95960.66;;;13.56;67.29
11268;BME280;49397;47.474;9.416;2022-09-20T07:57:41;95965.59;;;13.45;66.61
11268;BME280;49397;47.474;9.416;2022-09-20T08:00:08;95954.72;;;13.54;68.48
11268;BME280;49397;47.474;9.416;2022-09-20T08:02:34;95970.38;;;13.40;68.13
11268;BME280;49397;47.474;9.416;2022-09-20T08:04:59;95963.66;;;13.46;68.73
11268;BME280;49397;47.474;9.416;2022-09-20T08:07:25;95956.53;;;13.76;69.75
11268;BME280;49397;47.474;9.416;2022-09-20T08:09:51;95966.47;;;13.80;68.39
11268;BME280;49397;47.474;9.416;2022-09-20T08:12:16;95975.16;;;13.34;69.27
11268;BME280;49397;47.474;9.416;2022-09-20T08:14:44;95979.28;;;13.23;69.03
11268;BME280;49397;47.474;9.416;2022-09-20T08:17:10;95977.78;;;13.48;68.68
11268;BME280;49397;47.474;9.416;2022-09-20T08:19:36;95967.72;;;13.57;68.72
11268;BME280;49397;47.474;9.416;2022-09-20T08:22:05;95965.38;;;13.90;68.13
11268;BME280;49397;47.474;9.416;2022-09-20T08:24:31;95971.59;;;13.73;68.54
11268;BME280;49397;47.474;9.416;2022-09-20T08:26:56;95978.16;;;13.72;69.34
11268;BME280;49397;47.474;9.416;2022-09-20T08:29:24;95985.88;;;13.22;71.22
11268;BME280;49397;47.474;9.416;2022-09-20T08:31:49;95980.56;;;12.95;72.45
11268;BME280;49397;47.474;9.416;2022-09-20T08:34:16;95987.78;;;12.69;73.95
11268;BME280;49397;47.474;9.416;2022-09-20T08:36:44;95985.69;;;13.19;73.16
11268;BME280;49397;47.474;9.416;2022-09-20T08:39:12;95980.34;;;13.05;70.20
11268;BME280;49397;47.474;9.416;2022-09-20T08:41:45;95983.91;;;13.14;70.69
11268;BME280;49397;47.474;9.416;2022-09-20T08:44:23;95983.78;;;13.28;69.68
11268;BME280;49397;47.474;9.416;2022-09-20T08:47:42;95977.81;;;13.56;69.11
11268;BME280;49397;47.474;9.416;2022-09-20T08:49:49;95972.31;;;14.13;67.80
11268;BME280;49397;47.474;9.416;2022-09-20T08:52:22;95970.59;;;14.42;67.29
11268;BME280;49397;47.474;9.416;2022-09-20T08:54:49;95969.94;;;14.45;65.22
11268;BME280;49397;47.474;9.416;2022-09-20T08:57:17;95971.56;;;14.63;64.59
11268;BME280;49397;47.474;9.416;2022-09-20T08:59:44;95968.25;;;15.12;65.34
11268;BME280;49397;47.474;9.416;2022-09-20T09:02:15;95970.94;;;15.21;61.86
11268;BME280;49397;47.474;9.416;2022-09-20T09:04:42;95968.78;;;15.44;62.17
11268;BME280;49397;47.474;9.416;2022-09-20T09:07:12;95959.50;;;15.19;62.37
11268;BME280;49397;47.474;9.416;2022-09-20T09:09:41;95964.47;;;15.26;64.56
11268;BME280;49397;47.474;9.416;2022-09-20T09:12:18;95964.31;;;15.31;65.16
11268;BME280;49397;47.474;9.416;2022-09-20T09:14:45;95964.38;;;15.60;61.67
11268;BME280;49397;47.474;9.416;2022-09-20T09:17:16;95965.63;;;15.62;62.25
11268;BME280;49397;47.474;9.416;2022-09-20T09:19:48;95971.16;;;14.99;62.90
11268;BME280;49397;47.474;9.416;2022-09-20T09:22:38;95971.25;;;14.48;66.87
11268;BME280;49397;47.474;9.416;2022-09-20T09:28:03;95975.38;;;14.11;69.50
11268;BME280;49397;47.474;9.416;2022-09-20T09:30:39;95977.91;;;13.91;71.04
11268;BME280;49397;47.474;9.416;2022-09-20T09:33:25;95982.69;;;13.85;71.54
11268;BME280;49397;47.474;9.416;2022-09-20T09:38:34;95984.88;;;13.66;72.02
11268;BME280;49397;47.474;9.416;2022-09-20T09:41:09;95974.81;;;13.66;72.23
11268;BME280;49397;47.474;9.416;2022-09-20T09:44:02;95979.44;;;13.66;71.17
11268;BME280;49397;47.474;9.416;2022-09-20T09:46:33;95979.88;;;13.51;71.98
11268;BME280;49397;47.474;9.416;2022-09-20T09:49:15;95983.72;;;13.50;71.93
11268;BME280;49397;47.474;9.416;2022-09-20T09:52:16;95977.66;;;13.61;71.12
11268;BME280;49397;47.474;9.416;2022-09-20T09:54:50;95972.81;;;13.41;71.55
11268;BME280;49397;47.474;9.416;2022-09-20T10:14:28;95973.28;;;14.76;65.20
11268;BME280;49397;47.474;9.416;2022-09-20T10:30:14;95968.16;;;14.66;62.59
11268;BME280;49397;47.474;9.416;2022-09-20T10:33:02;95974.13;;;14.34;62.49
11268;BME280;49397;47.474;9.416;2022-09-20T10:38:14;95977.28;;;13.94;66.37
11268;BME280;49397;47.474;9.416;2022-09-20T10:40:55;95970.19;;;13.84;66.32
11268;BME280;49397;47.474;9.416;2022-09-20T10:44:12;95972.75;;;13.81;65.53
11268;BME280;49397;47.474;9.416;2022-09-20T10:49:19;95972.72;;;13.63;65.71
11268;BME280;49397;47.474;9.416;2022-09-20T11:02:37;95968.06;;;13.73;63.34
11268;BME280;49397;47.474;9.416;2022-09-20T11:07:57;95958.84;;;14.16;64.88
11268;BME280;49397;47.474;9.416;2022-09-20T11:10:30;95956.28;;;14.71;65.10
11268;BME280;49397;47.474;9.416;2022-09-20T11:13:09;95961.78;;;15.63;59.62
11268;BME280;49397;47.474;9.416;2022-09-20T11:15:59;95954.50;;;15.67;57.48
11268;BME280;49397;47.474;9.416;2022-09-20T11:18:49;95951.47;;;16.18;57.57
11268;BME280;49397;47.474;9.416;2022-09-20T11:29:00;95957.84;;;15.44;58.77
11268;BME280;49397;47.474;9.416;2022-09-20T11:31:37;95958.63;;;14.98;60.15
11268;BME280;49397;47.474;9.416;2022-09-20T11:34:12;95964.78;;;14.69;63.28
11268;BME280;49397;47.474;9.416;2022-09-20T11:36:46;95955.03;;;15.14;60.90
11268;BME280;49397;47.474;9.416;2022-09-20T11:39:42;95962.53;;;16.22;57.12
11268;BME280;49397;47.474;9.416;2022-09-20T11:42:16;95952.09;;;16.77;54.12
11268;BME280;49397;47.474;9.416;2022-09-20T11:44:43;95951.25;;;16.97;54.02
11268;BME280;49397;47.474;9.416;2022-09-20T11:47:13;95945.09;;;17.45;54.94
11268;BME280;49397;47.474;9.416;2022-09-20T12:00:31;95944.06;;;15.23;58.30
11268;BME280;49397;47.474;9.416;2022-09-20T12:02:59;95951.03;;;15.12;59.98
11268;BME280;49397;47.474;9.416;2022-09-20T12:05:37;95949.78;;;15.01;59.68
11268;BME280;49397;47.474;9.416;2022-09-20T12:08:23;95944.56;;;15.63;58.80
11268;BME280;49397;47.474;9.416;2022-09-20T12:11:00;95937.50;;;16.32;56.85
11268;BME280;49397;47.474;9.416;2022-09-20T12:13:30;95944.56;;;16.12;56.45
11268;BME280;49397;47.474;9.416;2022-09-20T12:16:08;95942.91;;;16.61;55.62
11268;BME280;49397;47.474;9.416;2022-09-20T12:21:21;95936.38;;;16.86;50.75
11268;BME280;49397;47.474;9.416;2022-09-20T12:28:47;95932.72;;;17.39;52.21
11268;BME280;49397;47.474;9.416;2022-09-20T12:33:57;95928.41;;;17.50;51.67
11268;BME280;49397;47.474;9.416;2022-09-20T12:36:25;95929.69;;;16.96;52.03
11268;BME280;49397;47.474;9.416;2022-09-20T12:41:22;95928.72;;;16.47;55.33
11268;BME280;49397;47.474;9.416;2022-09-20T12:43:58;95934.66;;;15.79;55.87
11268;BME280;49397;47.474;9.416;2022-09-20T12:46:37;95928.31;;;15.66;58.89
11268;BME280;49397;47.474;9.416;2022-09-20T12:49:19;95927.31;;;15.71;57.90
11268;BME280;49397;47.474;9.416;2022-09-20T12:53:09;95928.34;;;16.07;56.69
11268;BME280;49397;47.474;9.416;2022-09-20T12:55:40;95931.81;;;15.67;59.37
11268;BME280;49397;47.474;9.416;2022-09-20T13:00:40;95931.72;;;15.17;58.17
11268;BME280;49397;47.474;9.416;2022-09-20T13:05:39;95937.75;;;14.93;58.62
11268;BME280;49397;47.474;9.416;2022-09-20T13:08:20;95928.25;;;14.99;58.68
11268;BME280;49397;47.474;9.416;2022-09-20T13:10:59;95927.97;;;14.75;58.16
11268;BME280;49397;47.474;9.416;2022-09-20T13:13:30;95926.69;;;14.81;58.59
11268;BME280;49397;47.474;9.416;2022-09-20T13:15:58;95928.19;;;15.08;57.58
11268;BME280;49397;47.474;9.416;2022-09-20T13:18:26;95925.53;;;15.37;56.11
11268;BME280;49397;47.474;9.416;2022-09-20T13:20:53;95919.81;;;15.59;56.84
11268;BME280;49397;47.474;9.416;2022-09-20T13:23:24;95923.72;;;15.79;54.63
11268;BME280;49397;47.474;9.416;2022-09-20T13:25:54;95896.22;;;15.75;55.07
11268;BME280;49397;47.474;9.416;2022-09-20T13:28:41;95906.44;;;15.87;55.71
11268;BME280;49397;47.474;9.416;2022-09-20T13:31:21;95918.13;;;15.96;56.05
11268;BME280;49397;47.474;9.416;2022-09-20T13:33:48;95912.69;;;15.67;55.37
11268;BME280;49397;47.474;9.416;2022-09-20T13:36:23;95911.38;;;15.73;55.75
11268;BME280;49397;47.474;9.416;2022-09-20T13:38:49;95908.91;;;15.51;56.49
11268;BME280;49397;47.474;9.416;2022-09-20T13:41:15;95903.03;;;15.32;55.83
11268;BME280;49397;47.474;9.416;2022-09-20T13:43:44;95910.97;;;15.16;58.16
11268;BME280;49397;47.474;9.416;2022-09-20T13:46:16;95908.78;;;15.01;56.96
11268;BME280;49397;47.474;9.416;2022-09-20T13:48:45;95909.13;;;14.91;58.17
11268;BME280;49397;47.474;9.416;2022-09-20T13:51:19;95905.66;;;14.73;58.34
11268;BME280;49397;47.474;9.416;2022-09-20T13:53:47;95901.84;;;14.57;58.54
11268;BME280;49397;47.474;9.416;2022-09-20T13:56:20;95909.72;;;14.50;58.57
11268;BME280;49397;47.474;9.416;2022-09-20T13:58:48;95905.84;;;14.68;58.88
11268;BME280;49397;47.474;9.416;2022-09-20T14:01:40;95906.13;;;14.67;59.37
11268;BME280;49397;47.474;9.416;2022-09-20T14:04:14;95917.41;;;14.57;57.05
11268;BME280;49397;47.474;9.416;2022-09-20T14:06:40;95919.50;;;14.60;57.86
11268;BME280;49397;47.474;9.416;2022-09-20T14:09:07;95912.72;;;14.74;58.68
11268;BME280;49397;47.474;9.416;2022-09-20T14:11:34;95916.22;;;14.83;55.87
11268;BME280;49397;47.474;9.416;2022-09-20T14:14:02;95906.94;;;14.76;55.62
11268;BME280;49397;47.474;9.416;2022-09-20T14:16:38;95904.22;;;14.76;57.34
11268;BME280;49397;47.474;9.416;2022-09-20T14:19:05;95915.97;;;14.59;55.63
11268;BME280;49397;47.474;9.416;2022-09-20T14:21:33;95922.69;;;14.70;57.41
11268;BME280;49397;47.474;9.416;2022-09-20T14:24:03;95913.66;;;14.87;54.68
11268;BME280;49397;47.474;9.416;2022-09-20T14:26:32;95917.88;;;14.76;55.26
11268;BME280;49397;47.474;9.416;2022-09-20T14:31:58;95919.59;;;14.89;55.31
11268;BME280;49397;47.474;9.416;2022-09-20T14:34:24;95910.94;;;14.87;55.78
11268;BME280;49397;47.474;9.416;2022-09-20T14:36:56;95922.94;;;14.94;58.12
11268;BME280;49397;47.474;9.416;2022-09-20T14:39:26;95923.78;;;14.86;55.88
11268;BME280;49397;47.474;9.416;2022-09-20T14:41:52;95928.25;;;14.91;56.43
11268;BME280;49397;47.474;9.416;2022-09-20T14:46:49;95928.75;;;14.84;55.30
11268;BME280;49397;47.474;9.416;2022-09-20T14:49:31;95920.53;;;14.93;54.83
11268;BME280;49397;47.474;9.416;2022-09-20T14:55:02;95920.44;;;14.81;54.42
11268;BME280;49397;47.474;9.416;2022-09-20T14:57:35;95922.69;;;14.70;56.24
11268;BME280;49397;47.474;9.416;2022-09-20T15:00:04;95931.69;;;14.71;54.33
11268;BME280;49397;47.474;9.416;2022-09-20T15:02:34;95928.31;;;14.74;57.10
11268;BME280;49397;47.474;9.416;2022-09-20T15:05:00;95924.16;;;14.68;55.46
11268;BME280;49397;47.474;9.416;2022-09-20T15:07:26;95926.72;;;14.56;54.46
11268;BME280;49397;47.474;9.416;2022-09-20T15:09:52;95930.75;;;14.58;57.12
11268;BME280;49397;47.474;9.416;2022-09-20T15:12:18;95930.72;;;14.67;56.31
11268;BME280;49397;47.474;9.416;2022-09-20T15:14:45;95939.56;;;14.64;55.50
11268;BME280;49397;47.474;9.416;2022-09-20T15:17:14;95934.59;;;14.66;56.00
11268;BME280;49397;47.474;9.416;2022-09-20T15:19:40;95930.44;;;14.60;56.34
11268;BME280;49397;47.474;9.416;2022-09-20T15:22:08;95932.03;;;14.61;56.31
11268;BME280;49397;47.474;9.416;2022-09-20T15:24:34;95919.66;;;14.46;55.67
11268;BME280;49397;47.474;9.416;2022-09-20T15:26:59;95929.78;;;14.63;56.00
11268;BME280;49397;47.474;9.416;2022-09-20T15:29:25;95918.72;;;14.51;55.52
11268;BME280;49397;47.474;9.416;2022-09-20T15:31:51;95937.19;;;14.54;57.31
11268;BME280;49397;47.474;9.416;2022-09-20T15:34:16;95936.53;;;14.57;58.21
11268;BME280;49397;47.474;9.416;2022-09-20T15:36:43;95924.63;;;14.53;57.58
11268;BME280;49397;47.474;9.416;2022-09-20T15:39:09;95935.72;;;14.56;59.31
11268;BME280;49397;47.474;9.416;2022-09-20T15:41:35;95933.47;;;14.50;59.38
11268;BME280;49397;47.474;9.416;2022-09-20T15:44:04;95936.03;;;14.46;58.86
11268;BME280;49397;47.474;9.416;2022-09-20T15:46:30;95924.97;;;14.51;59.80
11268;BME280;49397;47.474;9.416;2022-09-20T15:48:58;95940.41;;;14.47;60.74
11268;BME280;49397;47.474;9.416;2022-09-20T15:51:25;95928.22;;;14.36;61.03
11268;BME280;49397;47.474;9.416;2022-09-20T15:54:02;95933.66;;;14.36;60.45
11268;BME280;49397;47.474;9.416;2022-09-20T15:56:37;95947.16;;;14.41;61.26
11268;BME280;49397;47.474;9.416;2022-09-20T15:59:06;95937.22;;;14.37;59.46
11268;BME280;49397;47.474;9.416;2022-09-20T16:01:41;95944.06;;;14.17;62.31
11268;BME280;49397;47.474;9.416;2022-09-20T16:04:09;95930.28;;;14.22;61.65
11268;BME280;49397;47.474;9.416;2022-09-20T16:06:36;95931.88;;;14.06;61.46
11268;BME280;49397;47.474;9.416;2022-09-20T16:09:03;95944.84;;;13.84;62.68
11268;BME280;49397;47.474;9.416;2022-09-20T16:11:29;95946.94;;;13.95;60.89
11268;BME280;49397;47.474;9.416;2022-09-20T16:13:56;95943.22;;;13.91;63.50
11268;BME280;49397;47.474;9.416;2022-09-20T16:16:23;95949.19;;;13.85;63.08
11268;BME280;49397;47.474;9.416;2022-09-20T16:18:49;95948.66;;;13.65;61.82
11268;BME280;49397;47.474;9.416;2022-09-20T16:21:33;95952.22;;;13.75;61.77
11268;BME280;49397;47.474;9.416;2022-09-20T16:24:00;95951.53;;;13.69;64.49
11268;BME280;49397;47.474;9.416;2022-09-20T16:26:27;95950.72;;;13.60;64.50
11268;BME280;49397;47.474;9.416;2022-09-20T16:28:53;95947.03;;;13.56;62.39
11268;BME280;49397;47.474;9.416;2022-09-20T16:31:35;95946.38;;;13.50;61.16
11268;BME280;49397;47.474;9.416;2022-09-20T16:34:15;95954.38;;;13.47;62.71
11268;BME280;49397;47.474;9.416;2022-09-20T16:36:48;95957.53;;;13.32;64.93
11268;BME280;49397;47.474;9.416;2022-09-20T16:39:15;95947.91;;;13.26;66.16
11268;BME280;49397;47.474;9.416;2022-09-20T16:41:42;95953.25;;;13.09;67.22
11268;BME280;49397;47.474;9.416;2022-09-20T16:44:09;95957.41;;;13.06;66.34
11268;BME280;49397;47.474;9.416;2022-09-20T16:46:35;95962.91;;;13.15;66.35
11268;BME280;49397;47.474;9.416;2022-09-20T16:49:03;95956.84;;;13.18;65.27
11268;BME280;49397;47.474;9.416;2022-09-20T16:51:31;95958.53;;;13.05;67.29
11268;BME280;49397;47.474;9.416;2022-09-20T16:54:00;95963.09;;;12.96;63.34
11268;BME280;49397;47.474;9.416;2022-09-20T16:56:27;95959.72;;;12.91;64.52
11268;BME280;49397;47.474;9.416;2022-09-20T16:58:56;95964.91;;;12.79;64.13
11268;BME280;49397;47.474;9.416;2022-09-20T17:01:21;95953.69;;;12.72;64.68
11268;BME280;49397;47.474;9.416;2022-09-20T17:03:47;95966.13;;;12.64;65.46
11268;BME280;49397;47.474;9.416;2022-09-20T17:06:14;95969.16;;;12.63;67.36
11268;BME280;49397;47.474;9.416;2022-09-20T17:08:41;95971.94;;;12.49;66.27
11268;BME280;49397;47.474;9.416;2022-09-20T17:11:16;95974.78;;;12.44;66.75
11268;BME280;49397;47.474;9.416;2022-09-20T17:13:43;95978.41;;;12.40;66.82
11268;BME280;49397;47.474;9.416;2022-09-20T17:16:11;95974.53;;;12.32;66.79
11268;BME280;49397;47.474;9.416;2022-09-20T17:18:38;95978.06;;;12.33;69.35
11268;BME280;49397;47.474;9.416;2022-09-20T17:21:11;95981.09;;;12.31;69.51
11268;BME280;49397;47.474;9.416;2022-09-20T17:23:41;95990.00;;;12.23;70.41
11268;BME280;49397;47.474;9.416;2022-09-20T17:26:10;95977.97;;;12.24;68.90
11268;BME280;49397;47.474;9.416;2022-09-20T17:28:38;95989.16;;;12.23;70.70
11268;BME280;49397;47.474;9.416;2022-09-20T17:31:05;95993.38;;;12.29;71.02
11268;BME280;49397;47.474;9.416;2022-09-20T17:33:32;95977.13;;;12.15;69.91
11268;BME280;49397;47.474;9.416;2022-09-20T17:35:58;95992.88;;;12.27;70.27
11268;BME280;49397;47.474;9.416;2022-09-20T17:38:31;95997.53;;;12.26;69.02
11268;BME280;49397;47.474;9.416;2022-09-20T17:41:09;95999.75;;;12.24;68.83
11268;BME280;49397;47.474;9.416;2022-09-20T17:43:36;95990.41;;;12.16;70.46
11268;BME280;49397;47.474;9.416;2022-09-20T17:46:17;95998.78;;;12.06;71.52
11268;BME280;49397;47.474;9.416;2022-09-20T17:48:51;95997.50;;;12.04;70.86
11268;BME280;49397;47.474;9.416;2022-09-20T17:51:24;96004.72;;;12.08;70.83
11268;BME280;49397;47.474;9.416;2022-09-20T17:53:51;96005.44;;;12.00;70.24
11268;BME280;49397;47.474;9.416;2022-09-20T17:56:17;96005.56;;;11.95;69.50
11268;BME280;49397;47.474;9.416;2022-09-20T17:58:43;96014.03;;;11.94;72.36
11268;BME280;49397;47.474;9.416;2022-09-20T18:01:13;96019.25;;;12.04;71.88
11268;BME280;49397;47.474;9.416;2022-09-20T18:03:42;96012.78;;;12.00;71.94
11268;BME280;49397;47.474;9.416;2022-09-20T18:06:21;96026.81;;;11.93;72.91
11268;BME280;49397;47.474;9.416;2022-09-20T18:09:00;96027.31;;;11.95;72.21